createdAt,value
2019-02-28T00:02:10.228Z,6.41
2019-02-28T00:04:38.803Z,6.37
2019-02-28T00:07:07.390Z,6.35
2019-02-28T00:09:36.249Z,6.36
2019-02-28T00:12:13.189Z,6.42
2019-02-28T00:14:40.685Z,6.39
2019-02-28T00:17:09.888Z,6.39
2019-02-28T00:19:41.638Z,6.33
2019-02-28T00:22:14.664Z,6.23
2019-02-28T00:24:46.167Z,6.13
2019-02-28T00:27:14.748Z,6.13
2019-02-28T00:29:46.232Z,6.19
2019-02-28T00:32:14.814Z,6.16
2019-02-28T00:34:46.014Z,6.25
2019-02-28T00:37:14.602Z,6.24
2019-02-28T00:39:43.171Z,6.32
2019-02-28T00:42:11.756Z,6.26
2019-02-28T00:44:43.483Z,6.26
2019-02-28T00:47:16.404Z,5.97
2019-02-28T00:49:45.120Z,5.97
2019-02-28T00:52:17.330Z,5.96
2019-02-28T00:54:48.861Z,5.98
2019-02-28T00:57:17.447Z,6.21
2019-02-28T00:59:46.029Z,6.02
2019-02-28T01:02:18.489Z,6.15
2019-02-28T01:04:47.436Z,6.03
2019-02-28T01:07:19.083Z,6.02
2019-02-28T01:10:08.588Z,6.00
2019-02-28T01:12:53.345Z,6.00
2019-02-28T01:15:20.249Z,6.12
2019-02-28T01:17:52.357Z,6.09
2019-02-28T01:23:21.869Z,6.02
2019-02-28T01:25:53.565Z,6.02
2019-02-28T01:28:27.838Z,5.89
2019-02-28T01:30:59.446Z,5.89
2019-02-28T01:33:29.664Z,5.76
2019-02-28T01:35:58.204Z,5.66
2019-02-28T01:38:26.767Z,5.66
2019-02-28T01:40:58.250Z,5.64
2019-02-28T01:43:29.609Z,5.64
2019-02-28T01:46:01.160Z,5.66
2019-02-28T01:48:32.509Z,5.87
2019-02-28T01:51:04.052Z,5.79
2019-02-28T01:53:32.645Z,5.79
2019-02-28T01:56:04.107Z,5.90
2019-02-28T01:58:32.692Z,5.92
2019-02-28T02:01:04.011Z,5.95
2019-02-28T02:03:32.575Z,5.98
2019-02-28T02:06:01.109Z,5.97
2019-02-28T02:08:29.688Z,5.97
2019-02-28T02:11:01.433Z,5.88
2019-02-28T02:13:36.679Z,5.93
2019-02-28T02:16:06.584Z,5.93
2019-02-28T02:18:35.165Z,5.99
2019-02-28T02:21:03.726Z,6.11
2019-02-28T02:23:35.075Z,6.17
2019-02-28T02:26:03.634Z,6.00
2019-02-28T02:28:34.938Z,5.82
2019-02-28T02:31:03.566Z,5.92
2019-02-28T02:33:33.245Z,5.87
2019-02-28T02:36:04.660Z,5.88
2019-02-28T02:38:40.176Z,5.88
2019-02-28T02:41:04.894Z,5.94
2019-02-28T02:43:33.663Z,6.00
2019-02-28T02:46:05.235Z,6.08
2019-02-28T02:48:38.600Z,6.10
2019-02-28T02:51:10.999Z,6.02
2019-02-28T02:53:41.909Z,6.06
2019-02-28T02:56:10.470Z,6.06
2019-02-28T02:58:42.026Z,6.02
2019-02-28T03:01:13.342Z,6.02
2019-02-28T03:03:44.300Z,5.88
2019-02-28T03:06:14.885Z,5.93
2019-02-28T03:08:46.797Z,5.75
2019-02-28T03:11:15.714Z,5.71
2019-02-28T03:13:47.274Z,5.65
2019-02-28T03:16:15.836Z,5.78
2019-02-28T03:18:47.287Z,5.78
2019-02-28T03:21:18.623Z,5.73
2019-02-28T03:23:50.360Z,5.74
2019-02-28T03:26:21.834Z,5.74
2019-02-28T03:28:50.420Z,5.75
2019-02-28T03:31:19.005Z,5.75
2019-02-28T03:33:48.462Z,5.83
2019-02-28T03:36:17.051Z,5.76
2019-02-28T03:38:49.788Z,5.76
2019-02-28T03:41:18.645Z,5.83
2019-02-28T03:43:50.307Z,5.89
2019-02-28T03:46:21.593Z,5.97
2019-02-28T03:48:50.172Z,5.99
2019-02-28T03:51:21.668Z,5.99
2019-02-28T03:53:56.006Z,6.02
2019-02-28T03:56:26.523Z,5.92
2019-02-28T03:58:58.410Z,5.94
2019-02-28T04:01:29.968Z,5.94
2019-02-28T04:03:58.520Z,6.10
2019-02-28T04:06:30.304Z,5.99
2019-02-28T04:09:07.249Z,6.05
2019-02-28T04:11:32.255Z,6.05
2019-02-28T04:14:04.044Z,6.15
2019-02-28T04:16:35.364Z,6.19
2019-02-28T04:19:07.035Z,6.14
2019-02-28T04:21:38.843Z,6.02
2019-02-28T04:24:12.653Z,5.97
2019-02-28T04:26:37.733Z,5.89
2019-02-28T04:29:06.263Z,5.89
2019-02-28T04:31:37.518Z,5.77
2019-02-28T04:34:13.019Z,5.79
2019-02-28T04:36:37.097Z,5.79
2019-02-28T04:39:09.620Z,5.70
2019-02-28T04:47:30.570Z,5.55
2019-02-28T04:52:48.016Z,5.51
2019-02-28T04:57:51.572Z,5.40
2019-02-28T05:00:23.653Z,5.27
2019-02-28T05:02:54.881Z,5.27
2019-02-28T05:05:22.919Z,5.27
2019-02-28T05:07:54.414Z,5.16
2019-02-28T05:10:23.353Z,5.20
2019-02-28T05:12:51.933Z,5.20
2019-02-28T05:15:20.581Z,5.13
2019-02-28T05:17:53.141Z,5.15
2019-02-28T05:20:22.179Z,5.10
2019-02-28T05:22:53.543Z,5.10
2019-02-28T05:25:26.214Z,5.08
2019-02-28T05:27:57.558Z,4.98
2019-02-28T05:30:28.807Z,5.16
2019-02-28T05:33:00.228Z,5.03
2019-02-28T05:35:28.801Z,4.99
2019-02-28T05:38:00.065Z,4.94
2019-02-28T05:40:31.372Z,4.96
2019-02-28T05:43:02.937Z,5.04
2019-02-28T05:45:31.504Z,5.04
2019-02-28T05:48:03.879Z,5.10
2019-02-28T05:50:33.557Z,5.10
2019-02-28T05:53:06.283Z,5.00
2019-02-28T05:55:35.477Z,5.00
2019-02-28T05:58:07.010Z,4.99
2019-02-28T06:00:38.332Z,5.01
2019-02-28T06:03:09.138Z,5.01
2019-02-28T06:15:48.613Z,5.08
2019-02-28T06:23:23.523Z,5.09
2019-02-28T06:24:05.629Z,5.11
2019-02-28T06:26:42.635Z,5.11
2019-02-28T06:29:14.815Z,5.15
2019-02-28T06:31:45.475Z,5.30
2019-02-28T06:34:14.270Z,5.30
2019-02-28T06:36:43.053Z,5.30
2019-02-28T06:39:23.127Z,5.40
2019-02-28T06:41:51.778Z,5.35
2019-02-28T06:44:27.004Z,5.46
2019-02-28T06:46:56.202Z,5.48
2019-02-28T06:49:30.185Z,5.64
2019-02-28T06:52:10.217Z,5.62
2019-02-28T06:55:25.170Z,5.62
2019-02-28T07:03:53.544Z,5.63
2019-02-28T07:06:25.129Z,5.77
2019-02-28T07:08:53.918Z,5.82
2019-02-28T07:11:22.479Z,5.82
2019-02-28T07:13:51.053Z,5.89
2019-02-28T07:16:22.841Z,5.94
2019-02-28T07:18:54.106Z,5.98
2019-02-28T07:21:22.990Z,6.07
2019-02-28T07:23:54.292Z,6.14
2019-02-28T07:26:25.842Z,6.26
2019-02-28T07:28:57.370Z,6.39
2019-02-28T07:31:28.853Z,6.43
2019-02-28T07:33:57.433Z,6.43
2019-02-28T07:36:26.018Z,6.56
2019-02-28T07:38:57.910Z,6.68
2019-02-28T07:41:29.384Z,6.76
2019-02-28T07:44:03.256Z,6.90
2019-02-28T07:46:34.840Z,7.02
2019-02-28T07:52:13.885Z,7.18
2019-02-28T08:00:20.586Z,7.50
2019-02-28T08:02:58.488Z,7.56
2019-02-28T08:05:34.079Z,7.65
2019-02-28T08:08:04.182Z,7.76
2019-02-28T08:10:35.860Z,7.94
2019-02-28T08:13:04.423Z,8.03
2019-02-28T08:15:33.488Z,8.17
2019-02-28T08:18:05.856Z,8.26
2019-02-28T08:20:34.874Z,8.41
2019-02-28T08:23:06.225Z,8.42
2019-02-28T08:25:35.215Z,8.52
2019-02-28T08:28:04.178Z,8.52
2019-02-28T08:30:34.777Z,8.51
2019-02-28T08:33:16.495Z,8.61
2019-02-28T08:36:31.440Z,8.59
2019-02-28T08:39:18.078Z,8.62
2019-02-28T08:41:40.506Z,8.77
2019-02-28T08:44:58.162Z,8.78
2019-02-28T08:47:21.871Z,8.78
2019-02-28T08:49:50.664Z,8.88
2019-02-28T08:52:22.186Z,9.01
2019-02-28T08:54:50.759Z,9.03
2019-02-28T08:57:22.026Z,9.12
2019-02-28T08:59:52.522Z,9.31
2019-02-28T09:02:23.419Z,9.44
2019-02-28T09:04:54.908Z,9.51
2019-02-28T09:07:26.579Z,9.59
2019-02-28T09:09:57.848Z,9.51
2019-02-28T09:12:29.887Z,9.53
2019-02-28T09:15:03.976Z,9.58
2019-02-28T09:17:35.645Z,9.61
2019-02-28T09:20:07.445Z,9.61
2019-02-28T09:22:36.973Z,9.74
2019-02-28T09:25:08.543Z,9.77
2019-02-28T09:27:40.057Z,9.59
2019-02-28T09:30:15.027Z,9.55
2019-02-28T09:32:48.158Z,9.48
2019-02-28T09:35:16.970Z,9.64
2019-02-28T09:37:48.250Z,9.82
2019-02-28T09:40:19.996Z,9.79
2019-02-28T09:42:51.164Z,9.85
2019-02-28T09:45:24.365Z,9.92
2019-02-28T09:48:00.791Z,10.07
2019-02-28T09:50:26.695Z,10.35
2019-02-28T09:52:58.043Z,10.45
2019-02-28T09:55:26.799Z,10.50
2019-02-28T09:57:58.171Z,10.48
2019-02-28T10:00:32.312Z,10.64
2019-02-28T10:03:10.142Z,10.77
2019-02-28T10:05:42.355Z,10.70
2019-02-28T10:08:09.420Z,10.86
2019-02-28T10:10:40.796Z,10.99
2019-02-28T10:13:14.541Z,11.15
2019-02-28T10:15:42.475Z,11.31
2019-02-28T10:18:14.248Z,11.33
2019-02-28T10:20:43.328Z,11.38
2019-02-28T10:23:11.874Z,11.22
2019-02-28T10:25:43.719Z,10.88
2019-02-28T10:28:15.371Z,11.01
2019-02-28T10:30:47.254Z,11.08
2019-02-28T10:33:20.293Z,11.23
2019-02-28T10:35:48.861Z,11.30
2019-02-28T10:38:17.503Z,11.23
2019-02-28T10:40:49.323Z,11.22
2019-02-28T10:43:19.077Z,11.12
2019-02-28T10:45:47.658Z,10.97
2019-02-28T10:48:19.211Z,11.08
2019-02-28T10:50:51.394Z,11.13
2019-02-28T10:53:23.013Z,11.27
2019-02-28T10:55:58.027Z,11.39
2019-02-28T10:58:25.793Z,11.18
2019-02-28T11:00:57.569Z,11.12
2019-02-28T11:03:31.757Z,11.07
2019-02-28T11:06:02.361Z,11.22
2019-02-28T11:08:36.873Z,11.21
2019-02-28T11:11:07.349Z,11.35
2019-02-28T11:13:38.789Z,11.45
2019-02-28T11:16:10.209Z,11.53
2019-02-28T11:18:42.753Z,11.47
2019-02-28T11:21:15.208Z,11.59
2019-02-28T11:23:50.086Z,11.83
2019-02-28T11:26:20.135Z,12.06
2019-02-28T11:28:51.693Z,11.80
2019-02-28T11:31:23.170Z,11.94
2019-02-28T11:33:54.543Z,11.98
2019-02-28T11:36:23.357Z,11.75
2019-02-28T11:38:55.440Z,11.87
2019-02-28T11:41:27.593Z,12.00
2019-02-28T11:43:56.512Z,11.99
2019-02-28T11:46:28.164Z,12.08
2019-02-28T11:48:59.447Z,12.16
2019-02-28T11:51:28.065Z,12.22
2019-02-28T11:54:03.565Z,12.37
2019-02-28T11:56:35.054Z,12.40
2019-02-28T11:59:09.507Z,12.70
2019-02-28T12:01:42.431Z,12.73
2019-02-28T12:04:14.444Z,12.51
2019-02-28T12:06:46.083Z,12.61
2019-02-28T12:09:16.263Z,12.62
2019-02-28T12:12:04.077Z,12.62
2019-02-28T12:20:40.862Z,12.38
2019-02-28T12:23:12.438Z,12.53
2019-02-28T12:25:43.727Z,12.55
2019-02-28T12:28:18.169Z,12.70
2019-02-28T12:30:46.780Z,12.73
2019-02-28T12:33:19.597Z,12.69
2019-02-28T12:35:48.706Z,12.61
2019-02-28T12:38:20.242Z,12.73
2019-02-28T12:40:52.177Z,12.68
2019-02-28T12:43:20.764Z,12.56
2019-02-28T12:45:49.593Z,12.46
2019-02-28T12:48:21.185Z,12.47
2019-02-28T13:06:59.529Z,13.09
2019-02-28T13:09:30.138Z,13.03
2019-02-28T13:12:01.293Z,12.80
2019-02-28T13:14:29.917Z,12.83
2019-02-28T13:17:00.787Z,12.67
2019-02-28T13:19:32.520Z,12.68
2019-02-28T13:22:07.064Z,12.65
2019-02-28T13:24:38.510Z,12.66
2019-02-28T13:27:10.868Z,12.66
2019-02-28T13:29:42.127Z,12.70
2019-02-28T13:32:13.468Z,12.67
2019-02-28T13:34:42.017Z,12.67
2019-02-28T13:37:11.563Z,12.77
2019-02-28T13:39:44.719Z,12.58
2019-02-28T13:42:15.807Z,12.37
2019-02-28T13:44:44.376Z,12.33
2019-02-28T13:47:15.608Z,12.24
2019-02-28T13:49:49.847Z,12.30
2019-02-28T13:52:20.522Z,12.24
2019-02-28T13:54:50.579Z,12.19
2019-02-28T13:57:23.678Z,12.19
2019-02-28T13:59:54.965Z,11.90
2019-02-28T14:02:29.855Z,12.04
2019-02-28T14:05:04.232Z,11.96
2019-02-28T14:07:35.590Z,12.01
2019-02-28T14:10:11.405Z,11.99
2019-02-28T14:12:40.359Z,12.03
2019-02-28T14:15:48.051Z,12.15
2019-02-28T14:18:18.249Z,12.16
2019-02-28T14:20:49.826Z,12.22
2019-02-28T14:23:21.658Z,12.03
2019-02-28T14:25:53.598Z,11.95
2019-02-28T14:28:25.383Z,11.87
2019-02-28T14:30:54.376Z,11.79
2019-02-28T14:33:24.487Z,11.77
2019-02-28T14:35:53.952Z,11.71
2019-02-28T14:38:26.147Z,11.79
2019-02-28T14:40:59.351Z,11.68
2019-02-28T14:43:33.161Z,11.63
2019-02-28T14:46:01.709Z,11.67
2019-02-28T14:48:36.622Z,11.75
2019-02-28T14:51:06.741Z,11.67
2019-02-28T14:53:35.317Z,11.57
2019-02-28T14:56:08.223Z,11.65
2019-02-28T14:58:39.849Z,11.67
2019-02-28T15:01:16.818Z,11.65
2019-02-28T15:03:45.183Z,11.55
2019-02-28T15:06:13.770Z,11.59
2019-02-28T15:08:47.429Z,11.58
2019-02-28T15:11:18.582Z,11.63
2019-02-28T15:13:50.365Z,11.58
2019-02-28T15:16:21.739Z,11.48
2019-02-28T15:18:51.228Z,11.35
2019-02-28T15:21:19.937Z,11.31
2019-02-28T15:23:51.541Z,11.31
2019-02-28T15:26:23.419Z,11.34
2019-02-28T15:28:55.020Z,11.14
2019-02-28T15:31:26.607Z,11.08
2019-02-28T15:33:58.591Z,11.09
2019-02-28T15:36:27.511Z,11.03
2019-02-28T15:38:58.805Z,10.90
2019-02-28T15:41:30.737Z,10.91
2019-02-28T15:44:03.682Z,10.82
2019-02-28T15:46:36.008Z,10.79
2019-02-28T15:49:10.178Z,10.76
2019-02-28T15:51:40.821Z,10.67
2019-02-28T15:54:12.300Z,10.65
2019-02-28T15:56:43.679Z,10.57
2019-02-28T15:59:15.652Z,10.47
2019-02-28T16:01:46.928Z,10.33
2019-02-28T16:04:18.425Z,10.28
2019-02-28T16:06:56.362Z,10.23
2019-02-28T16:09:21.449Z,10.26
2019-02-28T16:11:50.414Z,10.19
2019-02-28T16:14:21.891Z,10.12
2019-02-28T16:16:50.506Z,10.10
2019-02-28T16:19:22.728Z,9.99
2019-02-28T16:21:51.357Z,9.91
2019-02-28T16:24:20.153Z,9.85
2019-02-28T16:26:53.475Z,9.89
2019-02-28T16:29:22.099Z,9.76
2019-02-28T16:31:51.203Z,9.71
2019-02-28T16:34:22.791Z,9.64
2019-02-28T16:36:51.375Z,9.59
2019-02-28T16:39:19.999Z,9.56
2019-02-28T16:41:51.584Z,9.55
2019-02-28T16:44:22.827Z,9.43
2019-02-28T16:46:54.425Z,9.31
2019-02-28T16:49:23.396Z,9.24
2019-02-28T16:51:54.683Z,9.26
2019-02-28T16:54:27.841Z,9.23
2019-02-28T16:56:59.235Z,9.13
2019-02-28T16:59:31.740Z,9.03
2019-02-28T17:02:01.109Z,8.94
2019-02-28T17:04:29.717Z,8.95
2019-02-28T17:07:02.708Z,8.92
2019-02-28T17:09:37.333Z,8.92
2019-02-28T17:12:07.490Z,8.81
2019-02-28T17:14:39.358Z,8.80
2019-02-28T17:17:11.829Z,8.74
2019-02-28T17:19:42.935Z,8.80
2019-02-28T17:22:14.615Z,8.73
2019-02-28T17:24:46.954Z,8.75
2019-02-28T17:27:25.858Z,8.67
2019-02-28T17:30:00.460Z,8.63
2019-02-28T17:32:32.317Z,8.61
2019-02-28T17:35:04.285Z,8.53
2019-02-28T17:37:33.817Z,8.53
2019-02-28T17:40:08.751Z,8.44
2019-02-28T17:42:40.166Z,8.46
2019-02-28T17:45:16.261Z,8.34
2019-02-28T17:48:12.694Z,8.37
2019-02-28T17:50:51.012Z,8.32
2019-02-28T17:53:52.658Z,8.24
2019-02-28T17:56:40.844Z,8.19
2019-02-28T17:59:19.395Z,8.17
2019-02-28T18:01:56.982Z,8.17
2019-02-28T18:04:56.106Z,8.01
2019-02-28T18:07:33.037Z,7.99
2019-02-28T18:10:16.063Z,7.90
2019-02-28T18:13:02.646Z,7.75
2019-02-28T18:15:34.334Z,7.71
2019-02-28T18:18:41.552Z,7.65
2019-02-28T18:21:29.840Z,7.61
2019-02-28T18:24:18.169Z,7.42
2019-02-28T18:27:08.428Z,7.36
2019-02-28T18:30:00.651Z,7.44
2019-02-28T18:32:29.716Z,7.39
2019-02-28T18:35:02.286Z,7.39
2019-02-28T18:37:30.895Z,7.27
2019-02-28T18:40:02.384Z,7.20
2019-02-28T18:42:33.650Z,7.18
2019-02-28T18:45:10.285Z,7.17
2019-02-28T18:47:39.746Z,7.04
2019-02-28T18:50:12.546Z,7.01
2019-02-28T18:52:43.825Z,7.03
2019-02-28T18:55:15.503Z,6.85
2019-02-28T18:57:47.192Z,6.78
2019-02-28T19:00:20.210Z,6.85
2019-02-28T19:02:48.821Z,6.72
2019-02-28T19:05:17.546Z,6.77
2019-02-28T19:07:46.963Z,6.77
2019-02-28T19:10:18.840Z,6.70
2019-02-28T19:12:50.385Z,6.65
2019-02-28T19:15:21.918Z,6.63
2019-02-28T19:17:53.495Z,6.63
2019-02-28T19:20:25.483Z,6.52
2019-02-28T19:22:54.093Z,6.49
2019-02-28T19:25:25.687Z,6.38
2019-02-28T19:27:57.048Z,6.13
2019-02-28T19:30:28.934Z,6.13
2019-02-28T19:33:00.618Z,6.19
2019-02-28T19:35:32.236Z,6.17
2019-02-28T19:38:01.191Z,6.01
2019-02-28T19:40:29.856Z,6.01
2019-02-28T19:42:58.787Z,5.98
2019-02-28T19:45:33.956Z,5.93
2019-02-28T19:48:05.330Z,5.93
2019-02-28T19:50:34.457Z,5.82
2019-02-28T19:53:07.982Z,5.82
2019-02-28T19:55:38.870Z,5.80
2019-02-28T19:58:08.003Z,5.78
2019-02-28T20:00:37.302Z,5.78
2019-02-28T20:03:08.733Z,5.72
2019-02-28T20:05:40.223Z,5.69
2019-02-28T20:08:08.848Z,5.64
2019-02-28T20:10:40.738Z,5.64
2019-02-28T20:13:09.555Z,5.65
2019-02-28T20:15:41.562Z,5.57
2019-02-28T20:18:10.494Z,5.57
2019-02-28T20:20:45.410Z,5.55
2019-02-28T20:23:14.182Z,5.59
2019-02-28T20:25:45.957Z,5.58
2019-02-28T20:28:17.352Z,5.62
2019-02-28T20:30:47.570Z,5.62
2019-02-28T20:33:16.232Z,5.71
2019-02-28T20:35:45.161Z,5.77
2019-02-28T20:38:14.193Z,5.91
2019-02-28T20:40:46.282Z,5.91
2019-02-28T20:43:14.893Z,6.02
2019-02-28T20:45:43.998Z,6.02
2019-02-28T20:48:12.753Z,6.12
2019-02-28T20:50:47.504Z,6.08
2019-02-28T20:53:18.883Z,6.21
2019-02-28T20:55:50.562Z,6.18
2019-02-28T20:58:22.146Z,6.27
2019-02-28T21:00:53.823Z,6.27
2019-02-28T21:03:22.442Z,6.37
2019-02-28T21:05:51.280Z,6.42
2019-02-28T21:08:22.638Z,6.50
2019-02-28T21:10:51.454Z,6.39
2019-02-28T21:13:22.723Z,6.36
2019-02-28T21:15:54.097Z,6.45
2019-02-28T21:18:25.480Z,6.49
2019-02-28T21:20:54.103Z,6.30
2019-02-28T21:23:23.143Z,6.24
2019-02-28T21:25:52.189Z,6.20
2019-02-28T21:28:20.912Z,6.18
2019-02-28T21:30:49.489Z,6.28
2019-02-28T21:33:18.104Z,6.22
2019-02-28T21:35:50.001Z,6.16
2019-02-28T21:38:18.706Z,6.12
2019-02-28T21:40:47.421Z,6.12
2019-02-28T21:43:18.689Z,6.12
2019-02-28T21:45:47.297Z,6.12
2019-02-28T21:48:15.924Z,6.05
2019-02-28T21:50:47.401Z,6.09
2019-02-28T21:53:18.989Z,6.03
2019-02-28T21:55:50.661Z,6.03
2019-02-28T21:58:21.949Z,6.08
2019-02-28T22:00:53.221Z,6.00
2019-02-28T22:03:24.692Z,6.00
2019-02-28T22:05:56.068Z,5.93
2019-02-28T22:08:27.726Z,6.02
2019-02-28T22:10:59.227Z,6.04
2019-02-28T22:13:30.807Z,6.09
2019-02-28T22:15:59.414Z,6.09
2019-02-28T22:18:30.897Z,5.99
2019-02-28T22:21:02.476Z,5.99
2019-02-28T22:23:34.264Z,6.01
2019-02-28T22:26:05.644Z,5.99
2019-02-28T22:28:38.998Z,5.98
2019-02-28T22:31:12.215Z,6.00
2019-02-28T22:33:45.431Z,5.98
2019-02-28T22:36:27.453Z,5.96
2019-02-28T22:38:56.471Z,5.98
2019-02-28T22:41:28.256Z,5.96
2019-02-28T22:43:56.869Z,5.79
2019-02-28T22:46:25.681Z,5.79
2019-02-28T22:48:54.292Z,5.92
2019-02-28T22:51:25.871Z,5.78
2019-02-28T22:53:54.483Z,5.90
2019-02-28T22:56:26.078Z,5.87
2019-02-28T22:58:57.764Z,5.95
2019-02-28T23:01:29.629Z,5.72
2019-02-28T23:03:58.263Z,5.72
2019-02-28T23:06:26.829Z,5.72
2019-02-28T23:08:58.454Z,5.64
2019-02-28T23:11:29.935Z,5.54
2019-02-28T23:14:01.494Z,5.22
2019-02-28T23:16:30.119Z,5.11
2019-02-28T23:19:01.492Z,5.11
2019-02-28T23:21:30.053Z,4.97
2019-02-28T23:24:01.481Z,4.69
2019-02-28T23:26:30.091Z,4.47
2019-02-28T23:29:01.721Z,4.44
2019-02-28T23:31:42.499Z,4.46
2019-02-28T23:34:17.513Z,4.30
2019-02-28T23:36:46.095Z,4.14
2019-02-28T23:39:14.719Z,3.97
2019-02-28T23:41:43.666Z,4.11
2019-02-28T23:44:12.632Z,4.15
2019-02-28T23:46:41.915Z,4.06
2019-02-28T23:49:10.501Z,4.05
2019-02-28T23:51:42.025Z,3.87
2019-02-28T23:54:10.604Z,3.71
2019-02-28T23:56:42.121Z,3.61
2019-02-28T23:59:10.701Z,3.61
